Sunnyburn, Pennsylvania
Current Conditions -  °F | °C
As of 2:53 PM on Thursday 18 Dec 2014 (Local Time) from KLNS Reporting Station
Overcast Overcast  
Wind Chill: 26°   Ceiling: 3500
Heat Index: 36°   Visibility: 10mi
Dew Point: 24°   Wind: 17mph
Humidity: 62%   Direction: 290°WNW
Pressure: 30.05"   Gusts: 25mph
Location:  39.8258°N, 76.3995°W
Report Text: KLNS 181953Z 29015G22KT 10SM OVC035 02/M04 A3005 RMK AO2 SLP180 T00221044
Loading
Personal Weather Stations






























Interactive Weather Map New forecast layout! Learn more

10-Day Weather Forecast

Advertisements
Track Severe Weather on mobile